sensor_id;sensor_type;location;lat;lon;timestamp;temperature;humidity
1716;DHT22;855;48.824;9.220;2023-08-06T00:00:32;18.40;96.30
1716;DHT22;855;48.824;9.220;2023-08-06T00:02:59;18.40;96.20
1716;DHT22;855;48.824;9.220;2023-08-06T00:05:26;18.40;96.10
1716;DHT22;855;48.824;9.220;2023-08-06T00:07:53;18.40;96.10
1716;DHT22;855;48.824;9.220;2023-08-06T00:10:19;18.30;96.20
1716;DHT22;855;48.824;9.220;2023-08-06T00:12:46;18.30;96.10
1716;DHT22;855;48.824;9.220;2023-08-06T00:15:15;18.40;96.20
1716;DHT22;855;48.824;9.220;2023-08-06T00:17:42;18.40;96.10
1716;DHT22;855;48.824;9.220;2023-08-06T00:20:09;18.50;96.00
1716;DHT22;855;48.824;9.220;2023-08-06T00:22:37;18.40;95.90
1716;DHT22;855;48.824;9.220;2023-08-06T00:25:05;18.40;95.70
1716;DHT22;855;48.824;9.220;2023-08-06T00:27:32;18.30;95.60
1716;DHT22;855;48.824;9.220;2023-08-06T00:29:59;18.30;95.90
1716;DHT22;855;48.824;9.220;2023-08-06T00:32:27;18.30;95.80
1716;DHT22;855;48.824;9.220;2023-08-06T00:34:54;18.20;95.90
1716;DHT22;855;48.824;9.220;2023-08-06T00:37:21;18.20;95.60
1716;DHT22;855;48.824;9.220;2023-08-06T00:39:47;18.10;95.80
1716;DHT22;855;48.824;9.220;2023-08-06T00:42:14;17.90;96.10
1716;DHT22;855;48.824;9.220;2023-08-06T00:44:42;17.80;96.50
1716;DHT22;855;48.824;9.220;2023-08-06T00:47:09;17.90;96.60
1716;DHT22;855;48.824;9.220;2023-08-06T00:49:38;17.90;96.60
1716;DHT22;855;48.824;9.220;2023-08-06T00:52:07;17.80;96.60
1716;DHT22;855;48.824;9.220;2023-08-06T00:54:35;17.90;96.50
1716;DHT22;855;48.824;9.220;2023-08-06T00:57:03;17.90;96.50
1716;DHT22;855;48.824;9.220;2023-08-06T00:59:31;17.90;96.40
1716;DHT22;855;48.824;9.220;2023-08-06T01:01:58;18.00;96.20
1716;DHT22;855;48.824;9.220;2023-08-06T01:04:25;18.00;96.00
1716;DHT22;855;48.824;9.220;2023-08-06T01:07:02;18.00;96.10
1716;DHT22;855;48.824;9.220;2023-08-06T01:09:49;18.00;96.00
1716;DHT22;855;48.824;9.220;2023-08-06T01:12:24;18.00;95.70
1716;DHT22;855;48.824;9.220;2023-08-06T01:14:57;18.00;95.60
1716;DHT22;855;48.824;9.220;2023-08-06T01:17:26;18.00;95.50
1716;DHT22;855;48.824;9.220;2023-08-06T01:19:53;17.90;95.60
1716;DHT22;855;48.824;9.220;2023-08-06T01:22:21;17.90;95.60
1716;DHT22;855;48.824;9.220;2023-08-06T01:24:51;17.90;95.20
1716;DHT22;855;48.824;9.220;2023-08-06T01:27:25;17.80;95.20
1716;DHT22;855;48.824;9.220;2023-08-06T01:29:59;17.90;95.20
1716;DHT22;855;48.824;9.220;2023-08-06T01:32:30;17.90;95.00
1716;DHT22;855;48.824;9.220;2023-08-06T01:35:00;17.90;95.00
1716;DHT22;855;48.824;9.220;2023-08-06T01:37:29;17.90;95.00
1716;DHT22;855;48.824;9.220;2023-08-06T01:39:56;17.90;95.00
1716;DHT22;855;48.824;9.220;2023-08-06T01:42:23;17.70;95.30
1716;DHT22;855;48.824;9.220;2023-08-06T01:44:50;17.60;95.70
1716;DHT22;855;48.824;9.220;2023-08-06T01:47:17;17.40;96.10
1716;DHT22;855;48.824;9.220;2023-08-06T01:49:44;17.50;96.30
1716;DHT22;855;48.824;9.220;2023-08-06T01:52:11;17.60;96.00
1716;DHT22;855;48.824;9.220;2023-08-06T01:54:39;17.60;95.90
1716;DHT22;855;48.824;9.220;2023-08-06T01:57:06;17.60;95.90
1716;DHT22;855;48.824;9.220;2023-08-06T01:59:33;17.60;96.00
1716;DHT22;855;48.824;9.220;2023-08-06T02:01:59;17.70;95.90
1716;DHT22;855;48.824;9.220;2023-08-06T02:04:26;17.70;95.80
1716;DHT22;855;48.824;9.220;2023-08-06T02:06:53;17.60;96.00
1716;DHT22;855;48.824;9.220;2023-08-06T02:09:20;17.60;96.00
1716;DHT22;855;48.824;9.220;2023-08-06T02:11:48;17.60;95.90
1716;DHT22;855;48.824;9.220;2023-08-06T02:14:15;17.60;95.90
1716;DHT22;855;48.824;9.220;2023-08-06T02:16:41;17.60;95.90
1716;DHT22;855;48.824;9.220;2023-08-06T02:19:08;17.60;95.70
1716;DHT22;855;48.824;9.220;2023-08-06T02:21:35;17.50;95.40
1716;DHT22;855;48.824;9.220;2023-08-06T02:24:02;17.50;95.50
1716;DHT22;855;48.824;9.220;2023-08-06T02:26:29;17.50;95.40
1716;DHT22;855;48.824;9.220;2023-08-06T02:28:57;17.50;95.30
1716;DHT22;855;48.824;9.220;2023-08-06T02:31:24;17.50;95.20
1716;DHT22;855;48.824;9.220;2023-08-06T02:33:50;17.50;94.90
1716;DHT22;855;48.824;9.220;2023-08-06T02:36:19;17.40;94.70
1716;DHT22;855;48.824;9.220;2023-08-06T02:38:46;17.30;94.30
1716;DHT22;855;48.824;9.220;2023-08-06T02:41:13;17.30;94.00
1716;DHT22;855;48.824;9.220;2023-08-06T02:43:40;17.30;93.80
1716;DHT22;855;48.824;9.220;2023-08-06T02:46:08;17.20;93.90
1716;DHT22;855;48.824;9.220;2023-08-06T02:48:35;17.10;94.00
1716;DHT22;855;48.824;9.220;2023-08-06T02:51:01;16.90;94.20
1716;DHT22;855;48.824;9.220;2023-08-06T02:53:28;16.80;94.50
1716;DHT22;855;48.824;9.220;2023-08-06T02:55:55;16.80;94.90
1716;DHT22;855;48.824;9.220;2023-08-06T02:58:22;16.80;95.00
1716;DHT22;855;48.824;9.220;2023-08-06T03:00:59;16.70;94.90
1716;DHT22;855;48.824;9.220;2023-08-06T03:03:28;16.70;94.90
1716;DHT22;855;48.824;9.220;2023-08-06T03:05:55;16.60;94.70
1716;DHT22;855;48.824;9.220;2023-08-06T03:08:22;16.50;94.90
1716;DHT22;855;48.824;9.220;2023-08-06T03:10:49;16.40;95.10
1716;DHT22;855;48.824;9.220;2023-08-06T03:13:16;16.40;95.10
1716;DHT22;855;48.824;9.220;2023-08-06T03:15:43;16.40;94.90
1716;DHT22;855;48.824;9.220;2023-08-06T03:18:10;16.40;95.00
1716;DHT22;855;48.824;9.220;2023-08-06T03:20:38;16.40;94.80
1716;DHT22;855;48.824;9.220;2023-08-06T03:23:05;16.30;94.70
1716;DHT22;855;48.824;9.220;2023-08-06T03:25:35;16.40;94.80
1716;DHT22;855;48.824;9.220;2023-08-06T03:28:02;16.30;94.90
1716;DHT22;855;48.824;9.220;2023-08-06T03:30:29;16.40;95.10
1716;DHT22;855;48.824;9.220;2023-08-06T03:32:55;16.40;95.20
1716;DHT22;855;48.824;9.220;2023-08-06T03:35:22;16.40;95.20
1716;DHT22;855;48.824;9.220;2023-08-06T03:37:50;16.50;95.10
1716;DHT22;855;48.824;9.220;2023-08-06T03:40:17;16.50;94.70
1716;DHT22;855;48.824;9.220;2023-08-06T03:42:44;16.50;94.40
1716;DHT22;855;48.824;9.220;2023-08-06T03:45:11;16.60;94.40
1716;DHT22;855;48.824;9.220;2023-08-06T03:47:37;16.60;94.40
1716;DHT22;855;48.824;9.220;2023-08-06T03:50:05;16.70;94.40
1716;DHT22;855;48.824;9.220;2023-08-06T03:52:32;16.70;94.50
1716;DHT22;855;48.824;9.220;2023-08-06T03:55:00;16.80;94.60
1716;DHT22;855;48.824;9.220;2023-08-06T03:57:27;16.90;94.50
1716;DHT22;855;48.824;9.220;2023-08-06T03:59:54;16.90;94.00
1716;DHT22;855;48.824;9.220;2023-08-06T04:02:20;17.00;93.90
1716;DHT22;855;48.824;9.220;2023-08-06T04:04:47;17.00;94.20
1716;DHT22;855;48.824;9.220;2023-08-06T04:07:14;17.00;94.20
1716;DHT22;855;48.824;9.220;2023-08-06T04:09:54;17.10;94.20
1716;DHT22;855;48.824;9.220;2023-08-06T04:12:22;17.10;94.20
1716;DHT22;855;48.824;9.220;2023-08-06T04:14:50;17.20;94.10
1716;DHT22;855;48.824;9.220;2023-08-06T04:17:17;17.30;94.00
1716;DHT22;855;48.824;9.220;2023-08-06T04:19:46;17.30;93.70
1716;DHT22;855;48.824;9.220;2023-08-06T04:22:13;17.10;93.60
1716;DHT22;855;48.824;9.220;2023-08-06T04:24:41;17.00;94.10
1716;DHT22;855;48.824;9.220;2023-08-06T04:27:08;16.90;94.40
1716;DHT22;855;48.824;9.220;2023-08-06T04:29:37;16.80;94.80
1716;DHT22;855;48.824;9.220;2023-08-06T04:32:06;16.90;95.00
1716;DHT22;855;48.824;9.220;2023-08-06T04:34:33;16.90;95.00
1716;DHT22;855;48.824;9.220;2023-08-06T04:37:01;16.90;95.10
1716;DHT22;855;48.824;9.220;2023-08-06T04:39:28;17.00;95.10
1716;DHT22;855;48.824;9.220;2023-08-06T04:41:55;17.10;95.00
1716;DHT22;855;48.824;9.220;2023-08-06T04:44:23;17.10;95.00
1716;DHT22;855;48.824;9.220;2023-08-06T04:46:51;17.20;95.00
1716;DHT22;855;48.824;9.220;2023-08-06T04:51:45;17.30;94.70
1716;DHT22;855;48.824;9.220;2023-08-06T04:54:12;17.30;94.80
1716;DHT22;855;48.824;9.220;2023-08-06T04:56:39;17.30;94.80
1716;DHT22;855;48.824;9.220;2023-08-06T04:59:05;17.40;94.90
1716;DHT22;855;48.824;9.220;2023-08-06T05:01:32;17.40;95.00
1716;DHT22;855;48.824;9.220;2023-08-06T05:04:00;17.50;95.10
1716;DHT22;855;48.824;9.220;2023-08-06T05:06:27;17.60;94.90
1716;DHT22;855;48.824;9.220;2023-08-06T05:08:54;17.60;94.50
1716;DHT22;855;48.824;9.220;2023-08-06T05:11:21;17.70;94.20
1716;DHT22;855;48.824;9.220;2023-08-06T05:13:47;17.70;94.10
1716;DHT22;855;48.824;9.220;2023-08-06T05:16:14;17.70;93.90
1716;DHT22;855;48.824;9.220;2023-08-06T05:18:41;17.80;94.00
1716;DHT22;855;48.824;9.220;2023-08-06T05:21:09;17.80;93.50
1716;DHT22;855;48.824;9.220;2023-08-06T05:23:36;17.80;93.60
1716;DHT22;855;48.824;9.220;2023-08-06T05:26:03;17.90;93.30
1716;DHT22;855;48.824;9.220;2023-08-06T05:28:30;17.80;93.10
1716;DHT22;855;48.824;9.220;2023-08-06T05:33:23;18.00;93.20
1716;DHT22;855;48.824;9.220;2023-08-06T05:35:50;18.00;92.80
1716;DHT22;855;48.824;9.220;2023-08-06T05:38:18;18.10;92.60
1716;DHT22;855;48.824;9.220;2023-08-06T05:40:45;18.00;91.50
1716;DHT22;855;48.824;9.220;2023-08-06T05:43:13;18.10;91.70
1716;DHT22;855;48.824;9.220;2023-08-06T05:45:40;18.10;91.60
1716;DHT22;855;48.824;9.220;2023-08-06T05:48:10;18.20;92.00
1716;DHT22;855;48.824;9.220;2023-08-06T05:50:37;18.30;91.80
1716;DHT22;855;48.824;9.220;2023-08-06T05:53:03;18.40;91.60
1716;DHT22;855;48.824;9.220;2023-08-06T05:55:32;18.40;90.60
1716;DHT22;855;48.824;9.220;2023-08-06T05:57:58;18.50;90.20
1716;DHT22;855;48.824;9.220;2023-08-06T06:00:25;18.50;89.10
1716;DHT22;855;48.824;9.220;2023-08-06T06:02:52;18.50;90.20
1716;DHT22;855;48.824;9.220;2023-08-06T06:05:19;18.60;90.30
1716;DHT22;855;48.824;9.220;2023-08-06T06:07:46;18.60;90.20
1716;DHT22;855;48.824;9.220;2023-08-06T06:10:13;18.70;90.30
1716;DHT22;855;48.824;9.220;2023-08-06T06:12:41;18.60;89.70
1716;DHT22;855;48.824;9.220;2023-08-06T06:15:08;18.70;89.40
1716;DHT22;855;48.824;9.220;2023-08-06T06:17:35;18.70;90.10
1716;DHT22;855;48.824;9.220;2023-08-06T06:20:02;18.60;89.70
1716;DHT22;855;48.824;9.220;2023-08-06T06:22:30;18.50;88.20
1716;DHT22;855;48.824;9.220;2023-08-06T06:24:57;18.10;90.10
1716;DHT22;855;48.824;9.220;2023-08-06T06:27:25;18.00;90.40
1716;DHT22;855;48.824;9.220;2023-08-06T06:29:53;17.80;91.00
1716;DHT22;855;48.824;9.220;2023-08-06T06:32:21;17.80;90.80
1716;DHT22;855;48.824;9.220;2023-08-06T06:34:47;17.80;91.00
1716;DHT22;855;48.824;9.220;2023-08-06T06:37:14;17.80;91.00
1716;DHT22;855;48.824;9.220;2023-08-06T06:39:41;17.70;90.30
1716;DHT22;855;48.824;9.220;2023-08-06T06:42:09;17.70;90.70
1716;DHT22;855;48.824;9.220;2023-08-06T06:44:36;17.70;91.10
1716;DHT22;855;48.824;9.220;2023-08-06T06:47:04;17.70;91.20
1716;DHT22;855;48.824;9.220;2023-08-06T06:49:31;17.70;91.10
1716;DHT22;855;48.824;9.220;2023-08-06T06:51:58;17.70;90.80
1716;DHT22;855;48.824;9.220;2023-08-06T06:54:25;17.80;91.50
1716;DHT22;855;48.824;9.220;2023-08-06T06:56:51;17.80;91.90
1716;DHT22;855;48.824;9.220;2023-08-06T06:59:18;17.70;90.20
1716;DHT22;855;48.824;9.220;2023-08-06T07:01:45;17.60;91.10
1716;DHT22;855;48.824;9.220;2023-08-06T07:04:13;17.60;91.10
1716;DHT22;855;48.824;9.220;2023-08-06T07:06:40;17.60;91.20
1716;DHT22;855;48.824;9.220;2023-08-06T07:09:07;17.60;91.00
1716;DHT22;855;48.824;9.220;2023-08-06T07:11:38;17.70;90.90
1716;DHT22;855;48.824;9.220;2023-08-06T07:14:07;17.70;90.50
1716;DHT22;855;48.824;9.220;2023-08-06T07:16:34;17.80;90.70
1716;DHT22;855;48.824;9.220;2023-08-06T07:19:01;17.70;90.10
1716;DHT22;855;48.824;9.220;2023-08-06T07:21:29;17.60;89.50
1716;DHT22;855;48.824;9.220;2023-08-06T07:23:56;17.50;89.70
1716;DHT22;855;48.824;9.220;2023-08-06T07:26:25;17.60;90.40
1716;DHT22;855;48.824;9.220;2023-08-06T07:28:52;17.60;90.80
1716;DHT22;855;48.824;9.220;2023-08-06T07:31:18;17.60;91.10
1716;DHT22;855;48.824;9.220;2023-08-06T07:33:45;17.60;90.30
1716;DHT22;855;48.824;9.220;2023-08-06T07:36:13;17.60;90.80
1716;DHT22;855;48.824;9.220;2023-08-06T07:38:42;17.70;90.70
1716;DHT22;855;48.824;9.220;2023-08-06T07:41:08;17.60;90.50
1716;DHT22;855;48.824;9.220;2023-08-06T07:43:35;17.60;91.10
1716;DHT22;855;48.824;9.220;2023-08-06T07:46:03;17.60;91.00
1716;DHT22;855;48.824;9.220;2023-08-06T07:48:34;17.50;90.90
1716;DHT22;855;48.824;9.220;2023-08-06T07:51:01;17.50;91.20
1716;DHT22;855;48.824;9.220;2023-08-06T07:53:28;17.50;91.70
1716;DHT22;855;48.824;9.220;2023-08-06T07:55:56;17.40;91.70
1716;DHT22;855;48.824;9.220;2023-08-06T07:58:24;17.40;91.40
1716;DHT22;855;48.824;9.220;2023-08-06T08:00:51;17.40;91.60
1716;DHT22;855;48.824;9.220;2023-08-06T08:03:18;17.60;91.40
1716;DHT22;855;48.824;9.220;2023-08-06T08:05:45;17.60;90.60
1716;DHT22;855;48.824;9.220;2023-08-06T08:08:12;17.60;91.60
1716;DHT22;855;48.824;9.220;2023-08-06T08:10:39;17.50;91.10
1716;DHT22;855;48.824;9.220;2023-08-06T08:13:07;17.50;91.50
1716;DHT22;855;48.824;9.220;2023-08-06T08:15:34;17.60;91.90
1716;DHT22;855;48.824;9.220;2023-08-06T08:18:01;17.80;90.60
1716;DHT22;855;48.824;9.220;2023-08-06T08:20:28;18.00;90.90
1716;DHT22;855;48.824;9.220;2023-08-06T08:22:58;18.10;89.90
1716;DHT22;855;48.824;9.220;2023-08-06T08:25:26;18.20;89.50
1716;DHT22;855;48.824;9.220;2023-08-06T08:27:53;18.20;88.90
1716;DHT22;855;48.824;9.220;2023-08-06T08:30:21;18.20;89.30
1716;DHT22;855;48.824;9.220;2023-08-06T08:32:48;18.30;88.70
1716;DHT22;855;48.824;9.220;2023-08-06T08:35:15;18.50;87.80
1716;DHT22;855;48.824;9.220;2023-08-06T08:37:42;18.70;86.40
1716;DHT22;855;48.824;9.220;2023-08-06T08:40:09;18.90;87.30
1716;DHT22;855;48.824;9.220;2023-08-06T08:42:37;19.10;87.70
1716;DHT22;855;48.824;9.220;2023-08-06T08:45:05;19.20;85.40
1716;DHT22;855;48.824;9.220;2023-08-06T08:47:35;19.30;85.70
1716;DHT22;855;48.824;9.220;2023-08-06T08:50:04;19.40;84.60
1716;DHT22;855;48.824;9.220;2023-08-06T08:52:32;19.50;84.60
1716;DHT22;855;48.824;9.220;2023-08-06T08:55:01;19.60;85.60
1716;DHT22;855;48.824;9.220;2023-08-06T08:57:28;19.60;82.90
1716;DHT22;855;48.824;9.220;2023-08-06T08:59:55;19.50;82.50
1716;DHT22;855;48.824;9.220;2023-08-06T09:02:23;19.40;83.70
1716;DHT22;855;48.824;9.220;2023-08-06T09:04:53;19.20;84.90
1716;DHT22;855;48.824;9.220;2023-08-06T09:07:21;19.00;85.60
1716;DHT22;855;48.824;9.220;2023-08-06T09:09:50;18.70;86.00
1716;DHT22;855;48.824;9.220;2023-08-06T09:12:18;18.60;87.80
1716;DHT22;855;48.824;9.220;2023-08-06T09:14:45;18.60;87.10
1716;DHT22;855;48.824;9.220;2023-08-06T09:17:12;18.70;88.50
1716;DHT22;855;48.824;9.220;2023-08-06T09:19:42;18.70;88.70
1716;DHT22;855;48.824;9.220;2023-08-06T09:22:13;18.70;88.10
1716;DHT22;855;48.824;9.220;2023-08-06T09:24:41;18.70;87.80
1716;DHT22;855;48.824;9.220;2023-08-06T09:27:11;18.70;87.30
1716;DHT22;855;48.824;9.220;2023-08-06T09:29:41;18.70;87.80
1716;DHT22;855;48.824;9.220;2023-08-06T09:32:08;18.70;87.80
1716;DHT22;855;48.824;9.220;2023-08-06T09:34:35;18.70;86.20
1716;DHT22;855;48.824;9.220;2023-08-06T09:37:05;18.80;87.70
1716;DHT22;855;48.824;9.220;2023-08-06T09:39:33;18.80;87.40
1716;DHT22;855;48.824;9.220;2023-08-06T09:42:01;18.80;87.50
1716;DHT22;855;48.824;9.220;2023-08-06T09:44:30;18.90;88.20
1716;DHT22;855;48.824;9.220;2023-08-06T09:46:59;18.80;87.40
1716;DHT22;855;48.824;9.220;2023-08-06T09:49:27;18.70;87.40
1716;DHT22;855;48.824;9.220;2023-08-06T09:51:54;18.60;87.90
1716;DHT22;855;48.824;9.220;2023-08-06T09:54:23;18.60;87.50
1716;DHT22;855;48.824;9.220;2023-08-06T09:56:54;18.60;88.70
1716;DHT22;855;48.824;9.220;2023-08-06T09:59:21;18.60;88.20
1716;DHT22;855;48.824;9.220;2023-08-06T10:01:48;18.50;88.70
1716;DHT22;855;48.824;9.220;2023-08-06T10:04:15;18.40;87.80
1716;DHT22;855;48.824;9.220;2023-08-06T10:06:46;18.30;89.30
1716;DHT22;855;48.824;9.220;2023-08-06T10:09:13;18.40;88.90
1716;DHT22;855;48.824;9.220;2023-08-06T10:11:40;18.50;88.70
1716;DHT22;855;48.824;9.220;2023-08-06T10:14:12;18.60;89.70
1716;DHT22;855;48.824;9.220;2023-08-06T10:16:42;18.70;88.90
1716;DHT22;855;48.824;9.220;2023-08-06T10:19:10;18.70;90.10
1716;DHT22;855;48.824;9.220;2023-08-06T10:21:38;18.70;87.30
1716;DHT22;855;48.824;9.220;2023-08-06T10:24:07;18.90;88.50
1716;DHT22;855;48.824;9.220;2023-08-06T10:26:36;19.00;87.80
1716;DHT22;855;48.824;9.220;2023-08-06T10:29:37;19.00;86.20
1716;DHT22;855;48.824;9.220;2023-08-06T10:32:05;19.00;87.00
1716;DHT22;855;48.824;9.220;2023-08-06T10:34:56;19.00;86.70
1716;DHT22;855;48.824;9.220;2023-08-06T10:37:24;19.00;87.70
1716;DHT22;855;48.824;9.220;2023-08-06T10:39:51;19.00;87.10
1716;DHT22;855;48.824;9.220;2023-08-06T10:42:22;19.00;85.40
1716;DHT22;855;48.824;9.220;2023-08-06T10:45:15;19.10;85.80
1716;DHT22;855;48.824;9.220;2023-08-06T10:47:42;19.10;85.60
1716;DHT22;855;48.824;9.220;2023-08-06T10:50:11;19.10;83.80
1716;DHT22;855;48.824;9.220;2023-08-06T10:52:38;19.20;84.10
1716;DHT22;855;48.824;9.220;2023-08-06T10:55:06;19.30;84.60
1716;DHT22;855;48.824;9.220;2023-08-06T10:57:33;19.40;84.20
1716;DHT22;855;48.824;9.220;2023-08-06T10:59:59;19.40;83.60
1716;DHT22;855;48.824;9.220;2023-08-06T11:02:28;19.30;84.20
1716;DHT22;855;48.824;9.220;2023-08-06T11:04:55;19.10;83.30
1716;DHT22;855;48.824;9.220;2023-08-06T11:07:21;18.90;84.40
1716;DHT22;855;48.824;9.220;2023-08-06T11:09:50;18.60;85.80
1716;DHT22;855;48.824;9.220;2023-08-06T11:12:18;18.30;86.40
1716;DHT22;855;48.824;9.220;2023-08-06T11:14:50;18.00;86.40
1716;DHT22;855;48.824;9.220;2023-08-06T11:17:17;17.60;86.20
1716;DHT22;855;48.824;9.220;2023-08-06T11:19:45;17.60;86.50
1716;DHT22;855;48.824;9.220;2023-08-06T11:22:12;17.50;86.70
1716;DHT22;855;48.824;9.220;2023-08-06T11:24:40;17.50;86.40
1716;DHT22;855;48.824;9.220;2023-08-06T11:27:12;17.40;86.90
1716;DHT22;855;48.824;9.220;2023-08-06T11:29:40;17.50;87.40
1716;DHT22;855;48.824;9.220;2023-08-06T11:32:07;17.50;86.10
1716;DHT22;855;48.824;9.220;2023-08-06T11:34:34;17.50;86.00
1716;DHT22;855;48.824;9.220;2023-08-06T11:37:04;17.40;85.70
1716;DHT22;855;48.824;9.220;2023-08-06T11:39:32;17.40;85.70
1716;DHT22;855;48.824;9.220;2023-08-06T11:41:59;17.30;85.30
1716;DHT22;855;48.824;9.220;2023-08-06T11:44:30;17.40;86.00
1716;DHT22;855;48.824;9.220;2023-08-06T11:46:58;17.50;85.70
1716;DHT22;855;48.824;9.220;2023-08-06T11:49:43;17.50;84.90
1716;DHT22;855;48.824;9.220;2023-08-06T11:52:15;17.50;84.90
1716;DHT22;855;48.824;9.220;2023-08-06T11:54:44;17.30;86.60
1716;DHT22;855;48.824;9.220;2023-08-06T11:57:11;17.50;87.80
1716;DHT22;855;48.824;9.220;2023-08-06T11:59:38;17.40;86.50
1716;DHT22;855;48.824;9.220;2023-08-06T12:02:09;17.20;86.20
1716;DHT22;855;48.824;9.220;2023-08-06T12:05:02;17.20;87.80
1716;DHT22;855;48.824;9.220;2023-08-06T12:07:32;16.90;87.80
1716;DHT22;855;48.824;9.220;2023-08-06T12:12:26;16.60;89.50
1716;DHT22;855;48.824;9.220;2023-08-06T12:14:53;16.60;90.80
1716;DHT22;855;48.824;9.220;2023-08-06T12:17:20;16.40;90.70
1716;DHT22;855;48.824;9.220;2023-08-06T12:19:47;16.40;90.90
1716;DHT22;855;48.824;9.220;2023-08-06T12:22:14;16.30;90.80
1716;DHT22;855;48.824;9.220;2023-08-06T12:24:43;16.20;91.30
1716;DHT22;855;48.824;9.220;2023-08-06T12:27:11;16.20;91.40
1716;DHT22;855;48.824;9.220;2023-08-06T12:29:41;16.20;91.40
1716;DHT22;855;48.824;9.220;2023-08-06T12:32:08;16.20;91.50
1716;DHT22;855;48.824;9.220;2023-08-06T12:34:35;16.40;91.30
1716;DHT22;855;48.824;9.220;2023-08-06T12:37:02;16.40;91.20
1716;DHT22;855;48.824;9.220;2023-08-06T12:39:29;16.40;89.90
1716;DHT22;855;48.824;9.220;2023-08-06T12:41:58;16.50;88.90
1716;DHT22;855;48.824;9.220;2023-08-06T12:44:25;16.50;88.70
1716;DHT22;855;48.824;9.220;2023-08-06T12:46:52;16.60;88.10
1716;DHT22;855;48.824;9.220;2023-08-06T12:49:19;16.90;88.20
1716;DHT22;855;48.824;9.220;2023-08-06T12:51:47;16.90;86.00
1716;DHT22;855;48.824;9.220;2023-08-06T12:54:14;17.10;85.40
1716;DHT22;855;48.824;9.220;2023-08-06T12:56:41;17.20;84.60
1716;DHT22;855;48.824;9.220;2023-08-06T12:59:09;17.30;84.40
1716;DHT22;855;48.824;9.220;2023-08-06T13:01:37;17.50;84.10
1716;DHT22;855;48.824;9.220;2023-08-06T13:04:04;17.50;82.80
1716;DHT22;855;48.824;9.220;2023-08-06T13:06:31;17.50;82.40
1716;DHT22;855;48.824;9.220;2023-08-06T13:09:01;17.50;81.70
1716;DHT22;855;48.824;9.220;2023-08-06T13:11:28;17.50;81.90
1716;DHT22;855;48.824;9.220;2023-08-06T13:13:56;17.60;81.10
1716;DHT22;855;48.824;9.220;2023-08-06T13:16:24;17.60;81.70
1716;DHT22;855;48.824;9.220;2023-08-06T13:18:51;17.90;81.30
1716;DHT22;855;48.824;9.220;2023-08-06T13:21:18;17.90;79.10
1716;DHT22;855;48.824;9.220;2023-08-06T13:23:45;17.90;78.60
1716;DHT22;855;48.824;9.220;2023-08-06T13:26:13;18.10;80.40
1716;DHT22;855;48.824;9.220;2023-08-06T13:28:41;18.20;80.10
1716;DHT22;855;48.824;9.220;2023-08-06T13:31:08;18.40;79.50
1716;DHT22;855;48.824;9.220;2023-08-06T13:33:36;18.60;77.40
1716;DHT22;855;48.824;9.220;2023-08-06T13:36:03;18.40;77.10
1716;DHT22;855;48.824;9.220;2023-08-06T13:38:30;18.50;77.10
1716;DHT22;855;48.824;9.220;2023-08-06T13:40:56;18.60;77.10
1716;DHT22;855;48.824;9.220;2023-08-06T13:43:24;18.80;75.80
1716;DHT22;855;48.824;9.220;2023-08-06T13:45:51;18.70;76.80
1716;DHT22;855;48.824;9.220;2023-08-06T13:48:18;18.50;76.80
1716;DHT22;855;48.824;9.220;2023-08-06T13:50:47;18.30;76.80
1716;DHT22;855;48.824;9.220;2023-08-06T13:53:13;18.50;77.00
1716;DHT22;855;48.824;9.220;2023-08-06T13:55:40;18.50;76.80
1716;DHT22;855;48.824;9.220;2023-08-06T13:58:07;18.50;77.10
1716;DHT22;855;48.824;9.220;2023-08-06T14:00:34;18.50;75.90
1716;DHT22;855;48.824;9.220;2023-08-06T14:03:02;18.40;76.70
1716;DHT22;855;48.824;9.220;2023-08-06T14:05:28;18.30;76.30
1716;DHT22;855;48.824;9.220;2023-08-06T14:07:57;18.20;77.40
1716;DHT22;855;48.824;9.220;2023-08-06T14:10:23;18.10;77.80
1716;DHT22;855;48.824;9.220;2023-08-06T14:12:50;18.30;78.40
1716;DHT22;855;48.824;9.220;2023-08-06T14:15:17;18.10;78.80
1716;DHT22;855;48.824;9.220;2023-08-06T14:17:44;17.40;84.10
1716;DHT22;855;48.824;9.220;2023-08-06T14:20:11;17.30;84.50
1716;DHT22;855;48.824;9.220;2023-08-06T14:22:38;17.30;84.10
1716;DHT22;855;48.824;9.220;2023-08-06T14:25:07;17.30;84.00
1716;DHT22;855;48.824;9.220;2023-08-06T14:27:33;17.40;83.00
1716;DHT22;855;48.824;9.220;2023-08-06T14:30:00;17.60;82.80
1716;DHT22;855;48.824;9.220;2023-08-06T14:32:28;17.60;81.30
1716;DHT22;855;48.824;9.220;2023-08-06T14:34:55;17.60;81.10
1716;DHT22;855;48.824;9.220;2023-08-06T14:37:23;17.70;81.60
1716;DHT22;855;48.824;9.220;2023-08-06T14:39:50;17.80;81.90
1716;DHT22;855;48.824;9.220;2023-08-06T14:42:18;18.10;80.90
1716;DHT22;855;48.824;9.220;2023-08-06T14:44:45;18.40;79.90
1716;DHT22;855;48.824;9.220;2023-08-06T14:47:12;18.50;79.30
1716;DHT22;855;48.824;9.220;2023-08-06T14:49:39;18.40;77.60
1716;DHT22;855;48.824;9.220;2023-08-06T14:52:06;18.30;77.20
1716;DHT22;855;48.824;9.220;2023-08-06T14:54:33;18.30;77.80
1716;DHT22;855;48.824;9.220;2023-08-06T14:57:00;18.10;78.20
1716;DHT22;855;48.824;9.220;2023-08-06T14:59:28;18.00;79.50
1716;DHT22;855;48.824;9.220;2023-08-06T15:01:55;18.10;80.00
1716;DHT22;855;48.824;9.220;2023-08-06T15:04:21;18.10;79.70
1716;DHT22;855;48.824;9.220;2023-08-06T15:06:49;18.10;80.10
1716;DHT22;855;48.824;9.220;2023-08-06T15:09:16;18.10;80.90
1716;DHT22;855;48.824;9.220;2023-08-06T15:11:43;18.00;81.10
1716;DHT22;855;48.824;9.220;2023-08-06T15:14:10;17.90;82.40
1716;DHT22;855;48.824;9.220;2023-08-06T15:16:38;18.00;81.50
1716;DHT22;855;48.824;9.220;2023-08-06T15:19:05;18.00;81.60
1716;DHT22;855;48.824;9.220;2023-08-06T15:21:32;18.00;81.50
1716;DHT22;855;48.824;9.220;2023-08-06T15:23:59;18.00;80.80
1716;DHT22;855;48.824;9.220;2023-08-06T15:26:26;18.00;82.00
1716;DHT22;855;48.824;9.220;2023-08-06T15:28:54;18.00;81.20
1716;DHT22;855;48.824;9.220;2023-08-06T15:31:22;18.10;79.70
1716;DHT22;855;48.824;9.220;2023-08-06T15:33:50;18.20;77.90
1716;DHT22;855;48.824;9.220;2023-08-06T15:36:17;18.20;77.90
1716;DHT22;855;48.824;9.220;2023-08-06T15:38:44;18.20;76.70
1716;DHT22;855;48.824;9.220;2023-08-06T15:41:11;18.20;76.60
1716;DHT22;855;48.824;9.220;2023-08-06T15:43:37;18.20;76.80
1716;DHT22;855;48.824;9.220;2023-08-06T15:46:04;18.10;77.50
1716;DHT22;855;48.824;9.220;2023-08-06T15:48:31;18.20;77.80
1716;DHT22;855;48.824;9.220;2023-08-06T15:50:59;18.10;77.40
1716;DHT22;855;48.824;9.220;2023-08-06T15:53:26;18.10;76.70
1716;DHT22;855;48.824;9.220;2023-08-06T15:55:54;18.20;76.40
1716;DHT22;855;48.824;9.220;2023-08-06T15:58:20;18.10;75.90
1716;DHT22;855;48.824;9.220;2023-08-06T16:00:47;18.10;75.90
1716;DHT22;855;48.824;9.220;2023-08-06T16:03:14;18.00;76.20
1716;DHT22;855;48.824;9.220;2023-08-06T16:05:41;18.10;76.70
1716;DHT22;855;48.824;9.220;2023-08-06T16:08:10;18.10;77.20
1716;DHT22;855;48.824;9.220;2023-08-06T16:10:37;18.10;75.90
1716;DHT22;855;48.824;9.220;2023-08-06T16:13:07;18.00;76.70
1716;DHT22;855;48.824;9.220;2023-08-06T16:15:34;18.00;74.90
1716;DHT22;855;48.824;9.220;2023-08-06T16:18:00;17.90;76.00
1716;DHT22;855;48.824;9.220;2023-08-06T16:20:27;17.80;77.20
1716;DHT22;855;48.824;9.220;2023-08-06T16:22:54;17.80;78.00
1716;DHT22;855;48.824;9.220;2023-08-06T16:25:22;17.70;78.40
1716;DHT22;855;48.824;9.220;2023-08-06T16:27:49;17.60;79.10